Time;durP1;ratioP1;P1;durP2;ratioP2;P2;SDS_P1;SDS_P2;PMS_P1;PMS_P2;Temp;Humidity;BMP_temperature;BMP_pressure;BME280_temperature;BME280_humidity;BME280_pressure;Samples;Min_cycle;Max_cycle;Signal;HPM_P1;HPM_P2
2021/12/23 00:00:35;;;;;;;64.85;30.05;;;;;;;0.46;76.91;101200.88;4918857;29;20052;-65
2021/12/23 00:03:03;;;;;;;68.45;31.67;;;;;;;0.71;77.03;101193.34;4927643;29;20058;-66
2021/12/23 00:05:31;;;;;;;65.70;30.50;;;;;;;0.63;76.37;101195.56;4937718;29;20434;-65
2021/12/23 00:07:58;;;;;;;65.78;29.65;;;;;;;0.77;77.10;101192.38;4952379;29;20047;-64
2021/12/23 00:10:26;;;;;;;68.18;30.98;;;;;;;0.82;76.80;101192.47;4938071;29;20062;-65
2021/12/23 00:12:53;;;;;;;65.90;31.60;;;;;;;0.80;76.29;101183.75;4937234;29;20052;-64
2021/12/23 00:15:29;;;;;;;70.47;30.90;;;;;;;0.53;77.62;101179.91;4941594;29;20051;-64
2021/12/23 00:25:50;;;;;;;71.82;32.65;;;;;;;0.20;79.28;101174.25;4941606;29;20051;-65
2021/12/23 00:28:18;;;;;;;70.65;30.83;;;;;;;0.33;79.47;101163.16;4956186;28;20047;-64
2021/12/23 00:30:46;;;;;;;71.63;32.17;;;;;;;0.32;79.28;101169.66;4941428;29;20043;-65
2021/12/23 00:33:13;;;;;;;75.65;32.38;;;;;;;0.30;79.35;101160.94;4939857;29;20062;-64
2021/12/23 00:35:40;;;;;;;76.13;32.47;;;;;;;0.49;78.88;101162.47;4940371;29;20056;-64
2021/12/23 00:38:17;;;;;;;75.53;32.05;;;;;;;0.64;78.45;101156.56;4941864;29;20062;-65
2021/12/23 00:40:44;;;;;;;78.20;33.58;;;;;;;0.71;77.80;101155.38;4941063;29;20054;-64
2021/12/23 00:43:12;;;;;;;71.43;30.70;;;;;;;0.64;77.64;101151.16;4941545;29;20066;-64
2021/12/23 00:45:39;;;;;;;74.30;32.40;;;;;;;0.75;77.55;101148.41;4941967;29;20059;-64
2021/12/23 00:48:07;;;;;;;72.85;32.58;;;;;;;0.67;77.20;101146.06;4955977;28;20070;-64
2021/12/23 00:50:34;;;;;;;74.15;32.40;;;;;;;0.63;77.86;101147.59;4955649;28;20051;-64
2021/12/23 00:53:06;;;;;;;71.57;32.05;;;;;;;0.72;77.44;101139.91;4940637;29;20078;-64
2021/12/23 00:55:33;;;;;;;70.07;31.52;;;;;;;0.91;77.14;101128.69;4940613;29;20070;-64
2021/12/23 00:58:02;;;;;;;70.65;31.75;;;;;;;0.63;77.33;101131.34;4941170;29;20055;-65
2021/12/23 01:00:30;;;;;;;67.93;31.90;;;;;;;0.64;77.81;101132.16;4940490;29;20055;-65
2021/12/23 01:02:59;;;;;;;80.78;32.58;;;;;;;0.61;77.88;101127.22;4915049;29;20075;-65
2021/12/23 01:05:27;;;;;;;78.85;34.20;;;;;;;0.60;78.26;101118.28;4919822;29;20076;-64
2021/12/23 01:07:55;;;;;;;72.25;32.22;;;;;;;0.45;78.39;101111.69;4920454;29;20056;-64
2021/12/23 01:10:24;;;;;;;71.45;32.75;;;;;;;0.57;78.03;101107.91;4919376;29;20060;-65
2021/12/23 01:12:58;;;;;;;70.55;31.40;;;;;;;0.42;79.01;101118.41;4921046;29;20048;-65
2021/12/23 01:15:50;;;;;;;69.40;30.73;;;;;;;0.65;78.30;101120.25;4921291;29;20059;-65
2021/12/23 01:18:19;;;;;;;72.93;32.05;;;;;;;0.29;79.20;101112.41;4920014;29;20072;-64
2021/12/23 01:20:51;;;;;;;75.00;32.65;;;;;;;0.39;79.88;101121.59;4921294;29;20514;-64
2021/12/23 01:23:23;;;;;;;67.70;31.17;;;;;;;0.59;78.47;101116.63;4920800;29;20400;-64
2021/12/23 01:25:52;;;;;;;72.13;31.80;;;;;;;0.72;78.34;101108.22;4919770;29;20063;-65
2021/12/23 01:28:19;;;;;;;70.63;32.40;;;;;;;0.54;78.11;101112.97;4921212;29;20067;-65
2021/12/23 01:30:47;;;;;;;71.90;32.60;;;;;;;0.51;78.51;101105.31;4921106;29;20052;-64
2021/12/23 01:33:15;;;;;;;74.05;33.03;;;;;;;0.34;79.11;101107.09;4935508;29;20048;-65
2021/12/23 01:35:45;;;;;;;74.13;32.58;;;;;;;0.81;78.62;101095.13;4919936;29;20067;-64
2021/12/23 01:38:12;;;;;;;69.38;31.90;;;;;;;0.70;77.79;101096.78;4921188;29;20055;-64
2021/12/23 01:40:39;;;;;;;71.18;31.20;;;;;;;0.57;78.52;101102.50;4920807;29;20078;-64
2021/12/23 01:43:07;;;;;;;73.32;32.50;;;;;;;0.38;78.75;101095.56;4920520;29;20059;-64
2021/12/23 01:45:34;;;;;;;67.55;31.05;;;;;;;0.40;79.27;101095.34;4920800;29;20063;-65
2021/12/23 01:48:02;;;;;;;72.68;33.35;;;;;;;0.52;79.27;101093.44;4920442;29;20060;-65
2021/12/23 01:50:30;;;;;;;70.55;31.20;;;;;;;0.66;79.01;101086.69;4920663;29;20425;-65
2021/12/23 01:52:58;;;;;;;78.47;33.40;;;;;;;0.70;78.25;101085.94;4888162;29;20044;-65
2021/12/23 01:55:27;;;;;;;72.40;30.73;;;;;;;0.85;77.57;101077.31;4920644;29;20062;-64
2021/12/23 01:57:56;;;;;;;67.65;30.25;;;;;;;0.66;78.01;101084.78;4920819;29;20064;-65
2021/12/23 02:00:29;;;;;;;69.35;31.52;;;;;;;0.85;77.15;101083.56;4920740;29;20060;-66
2021/12/23 02:02:57;;;;;;;76.60;33.08;;;;;;;0.89;77.59;101070.34;4937950;29;20369;-65
2021/12/23 02:05:25;;;;;;;65.25;31.50;;;;;;;0.78;77.69;101076.63;4939481;29;20055;-64
2021/12/23 02:07:52;;;;;;;74.28;32.85;;;;;;;0.87;77.33;101073.28;4938254;29;20056;-64
2021/12/23 02:10:20;;;;;;;71.25;32.22;;;;;;;1.07;76.97;101068.25;4939749;29;20079;-65
2021/12/23 02:12:48;;;;;;;63.75;30.17;;;;;;;0.93;77.45;101064.19;4938295;29;20060;-64
2021/12/23 02:15:16;;;;;;;67.68;31.27;;;;;;;0.98;77.09;101066.16;4939328;29;20063;-65
2021/12/23 02:17:45;;;;;;;70.05;32.40;;;;;;;1.00;76.53;101069.47;4953942;28;20055;-65
2021/12/23 02:20:18;;;;;;;66.78;31.23;;;;;;;0.93;77.16;101082.34;4939444;29;20056;-65
2021/12/23 02:22:45;;;;;;;65.90;31.83;;;;;;;1.01;76.57;101071.94;4939148;29;20380;-64
2021/12/23 02:25:14;;;;;;;71.28;31.90;;;;;;;1.00;76.51;101062.16;4937705;29;20522;-65
2021/12/23 02:27:41;;;;;;;69.07;30.60;;;;;;;0.92;77.05;101059.00;4937797;29;20491;-63
2021/12/23 02:30:13;;;;;;;68.30;32.00;;;;;;;1.07;76.94;101053.88;4939125;29;20510;-64
2021/12/23 02:32:41;;;;;;;67.88;31.75;;;;;;;1.09;76.78;101049.03;4937382;29;20172;-64
2021/12/23 02:35:12;;;;;;;67.72;30.27;;;;;;;0.79;77.50;101051.16;4938650;29;20392;-64
2021/12/23 02:37:40;;;;;;;67.32;31.25;;;;;;;0.80;77.77;101047.41;4939682;29;20056;-64
2021/12/23 02:40:09;;;;;;;68.93;31.23;;;;;;;0.80;78.01;101050.09;4938016;29;20059;-64
2021/12/23 02:42:36;;;;;;;69.88;32.38;;;;;;;0.98;77.49;101047.19;4937648;29;20056;-65
2021/12/23 02:45:09;;;;;;;72.30;32.55;;;;;;;0.96;77.40;101046.59;4936971;29;20056;-64
2021/12/23 02:47:37;;;;;;;63.92;30.65;;;;;;;0.91;77.36;101038.38;4938962;29;20059;-64
2021/12/23 02:50:05;;;;;;;66.90;30.83;;;;;;;0.82;77.73;101042.56;4938946;29;20044;-66
2021/12/23 02:52:34;;;;;;;68.43;31.42;;;;;;;0.96;77.95;101043.88;4938414;29;20055;-65
2021/12/23 02:55:02;;;;;;;70.70;31.30;;;;;;;1.11;77.30;101042.31;4937371;29;20055;-66
2021/12/23 02:57:33;;;;;;;71.40;31.75;;;;;;;1.05;77.31;101051.41;4938697;29;20128;-64
2021/12/23 03:00:01;;;;;;;65.50;29.73;;;;;;;1.05;77.38;101045.16;4938844;29;20054;-65
2021/12/23 03:02:28;;;;;;;68.28;30.70;;;;;;;1.35;76.66;101042.16;4933522;29;20067;-66
2021/12/23 03:04:55;;;;;;;68.97;30.75;;;;;;;1.24;76.38;101041.16;4919464;29;20464;-63
2021/12/23 03:07:23;;;;;;;69.72;30.95;;;;;;;1.15;76.95;101040.72;4919437;29;20056;-65
2021/12/23 03:09:50;;;;;;;66.20;30.67;;;;;;;1.16;76.72;101036.13;4919663;29;20048;-65
2021/12/23 03:12:17;;;;;;;65.75;31.08;;;;;;;1.10;77.10;101031.66;4918239;29;20060;-64
2021/12/23 03:14:44;;;;;;;63.92;30.27;;;;;;;1.09;77.20;101033.59;4919483;29;20518;-65
2021/12/23 03:17:12;;;;;;;62.20;31.50;;;;;;;1.32;77.14;101019.06;4919134;29;20036;-65
2021/12/23 03:19:39;;;;;;;64.47;31.00;;;;;;;1.24;76.32;101022.16;4919374;29;20373;-64
2021/12/23 03:22:06;;;;;;;66.18;30.50;;;;;;;1.17;77.04;101016.06;4919315;29;20056;-65
2021/12/23 03:24:34;;;;;;;69.75;30.27;;;;;;;1.04;76.95;101014.50;4919179;29;20060;-65
2021/12/23 03:27:01;;;;;;;67.43;31.85;;;;;;;1.03;77.29;101022.88;4918059;29;20530;-64
2021/12/23 03:29:28;;;;;;;63.38;30.17;;;;;;;1.03;77.96;101010.13;4919074;29;20075;-64
2021/12/23 03:31:56;;;;;;;67.13;30.67;;;;;;;1.24;77.15;101005.09;4919080;29;20052;-66
2021/12/23 03:34:23;;;;;;;67.80;31.30;;;;;;;1.01;77.34;101003.31;4919119;29;20044;-64
2021/12/23 03:36:51;;;;;;;67.75;29.98;;;;;;;1.31;77.50;100992.19;4919005;29;20510;-64
2021/12/23 03:39:19;;;;;;;63.80;30.55;;;;;;;1.18;77.33;100998.75;4918871;29;20048;-64
2021/12/23 03:41:47;;;;;;;62.92;30.48;;;;;;;1.29;76.92;101005.97;4919024;29;20181;-64
2021/12/23 03:44:15;;;;;;;67.78;30.60;;;;;;;1.21;76.81;100992.00;4918855;29;20052;-66
2021/12/23 03:46:42;;;;;;;66.25;30.75;;;;;;;1.27;76.93;100991.84;4918018;29;20060;-64
2021/12/23 03:49:10;;;;;;;63.17;29.50;;;;;;;1.33;76.65;100981.88;4901750;29;20079;-67
2021/12/23 03:51:37;;;;;;;64.57;31.55;;;;;;;1.29;76.32;100989.69;4918968;29;20162;-64
2021/12/23 03:54:05;;;;;;;65.75;29.65;;;;;;;1.30;76.62;100985.94;4918560;29;20040;-64
2021/12/23 03:56:32;;;;;;;67.25;31.00;;;;;;;1.18;76.58;100979.75;4918615;29;20067;-64
2021/12/23 03:58:59;;;;;;;65.65;32.05;;;;;;;1.41;76.72;100968.75;4918672;29;20056;-65
2021/12/23 04:01:28;;;;;;;61.78;30.55;;;;;;;1.43;76.45;100968.50;4918577;29;20056;-66
2021/12/23 04:03:56;;;;;;;62.60;31.40;;;;;;;1.28;76.68;100969.06;4934961;29;20411;-64
2021/12/23 04:06:25;;;;;;;60.50;30.02;;;;;;;1.15;77.30;100962.06;4937706;29;20291;-64
2021/12/23 04:08:53;;;;;;;67.10;31.50;;;;;;;1.33;76.59;100963.72;4937995;29;20059;-65
2021/12/23 04:11:22;;;;;;;66.00;29.88;;;;;;;1.02;77.28;100964.28;4937479;29;20059;-65
2021/12/23 04:13:52;;;;;;;60.75;29.23;;;;;;;1.19;77.25;100967.81;4936230;29;20464;-64
2021/12/23 04:16:20;;;;;;;63.13;29.98;;;;;;;1.36;76.57;100965.13;4937628;29;20047;-65
2021/12/23 04:18:50;;;;;;;57.28;29.52;;;;;;;1.06;77.51;100957.31;4937865;29;20051;-64
2021/12/23 04:21:18;;;;;;;59.90;29.92;;;;;;;1.15;77.65;100947.69;4936534;29;20055;-64
2021/12/23 04:23:45;;;;;;;64.43;30.92;;;;;;;1.05;78.08;100942.91;4936200;29;20052;-64
2021/12/23 04:26:13;;;;;;;57.83;29.70;;;;;;;1.09;78.26;100940.53;4937706;29;20133;-65
2021/12/23 04:28:47;;;;;;;63.15;30.48;;;;;;;1.26;77.52;100946.78;4936279;29;20055;-65
2021/12/23 04:31:20;;;;;;;59.45;29.13;;;;;;;1.24;77.16;100945.41;4937151;29;20075;-65
2021/12/23 04:33:49;;;;;;;64.28;29.63;;;;;;;1.33;77.13;100942.00;4937316;29;20055;-65
2021/12/23 04:36:17;;;;;;;61.22;29.58;;;;;;;1.46;77.15;100938.97;4936154;29;20427;-65
2021/12/23 04:38:45;;;;;;;67.22;30.88;;;;;;;1.42;76.71;100936.97;4937406;28;20064;-64
2021/12/23 04:41:13;;;;;;;62.85;30.08;;;;;;;1.38;77.02;100927.72;4937281;29;20487;-64
2021/12/23 04:43:41;;;;;;;69.82;31.40;;;;;;;1.37;76.60;100929.59;4937180;29;20054;-66
2021/12/23 04:46:09;;;;;;;64.72;30.52;;;;;;;1.32;77.25;100924.09;4937165;29;20056;-64
2021/12/23 04:48:37;;;;;;;61.83;29.63;;;;;;;1.34;77.35;100937.41;4937326;29;20048;-65
2021/12/23 04:51:05;;;;;;;62.38;30.63;;;;;;;1.32;77.76;100934.94;4935893;29;20062;-65
2021/12/23 04:53:32;;;;;;;69.72;29.98;;;;;;;1.35;77.46;100929.03;4935160;29;20052;-66
2021/12/23 04:55:59;;;;;;;63.60;28.33;;;;;;;1.33;77.43;100935.75;4935330;29;20055;-65
2021/12/23 04:58:26;;;;;;;62.15;30.50;;;;;;;1.59;76.81;100924.22;4937612;29;20055;-64
2021/12/23 05:00:54;;;;;;;66.47;31.42;;;;;;;1.68;76.59;100920.84;4940771;29;20123;-64
2021/12/23 05:03:23;;;;;;;60.03;29.13;;;;;;;1.68;76.13;100920.84;4928629;29;20048;-65
2021/12/23 05:05:51;;;;;;;63.58;28.90;;;;;;;1.52;76.25;100918.97;4920605;29;20067;-64
2021/12/23 05:08:19;;;;;;;61.03;31.45;;;;;;;1.50;76.57;100921.09;4904779;29;20059;-65
2021/12/23 05:10:46;;;;;;;57.95;29.38;;;;;;;1.52;76.76;100915.41;4920221;29;20048;-64
2021/12/23 05:13:14;;;;;;;62.95;31.60;;;;;;;1.57;76.46;100913.59;4921304;29;20048;-64
2021/12/23 05:15:41;;;;;;;61.35;30.02;;;;;;;1.55;76.53;100920.38;4921457;29;20059;-64
2021/12/23 05:18:09;;;;;;;64.35;30.40;;;;;;;1.34;77.06;100913.81;4904452;29;20062;-63
2021/12/23 05:20:36;;;;;;;64.13;31.33;;;;;;;1.57;77.32;100904.66;4920147;29;20051;-65
2021/12/23 05:23:03;;;;;;;62.30;30.65;;;;;;;1.54;77.49;100905.13;4920152;29;20380;-64
2021/12/23 05:25:31;;;;;;;62.50;30.05;;;;;;;1.40;76.90;100901.13;4919788;29;20067;-64
2021/12/23 05:28:00;;;;;;;63.05;30.95;;;;;;;1.37;77.72;100893.50;4921341;29;20052;-65
2021/12/23 05:30:27;;;;;;;58.88;29.45;;;;;;;1.75;77.04;100891.59;4921394;29;20063;-65
2021/12/23 05:32:55;;;;;;;61.22;28.45;;;;;;;1.51;77.07;100883.94;4921092;29;20052;-64
2021/12/23 05:35:24;;;;;;;68.85;30.67;;;;;;;1.25;77.91;100880.03;4919616;29;20162;-64
2021/12/23 05:37:52;;;;;;;63.25;31.13;;;;;;;1.28;78.24;100875.97;4919498;29;20419;-64
2021/12/23 05:40:23;;;;;;;64.10;31.08;;;;;;;1.32;78.78;100879.84;4919487;29;20082;-64
2021/12/23 05:42:51;;;;;;;66.38;30.95;;;;;;;1.27;78.64;100879.78;4920960;29;20056;-64
2021/12/23 05:45:18;;;;;;;62.53;30.77;;;;;;;1.48;78.37;100879.00;4920851;29;20055;-64
2021/12/23 05:47:46;;;;;;;56.42;28.77;;;;;;;1.50;77.75;100885.81;4920752;29;20044;-64
2021/12/23 05:50:15;;;;;;;63.05;31.58;;;;;;;1.30;78.21;100874.69;4921292;29;20056;-64
2021/12/23 05:52:43;;;;;;;60.50;30.23;;;;;;;1.33;78.44;100874.19;4904419;29;20048;-64
2021/12/23 05:55:12;;;;;;;62.72;29.63;;;;;;;1.38;78.21;100874.25;4920469;29;20060;-65
2021/12/23 05:57:40;;;;;;;59.10;29.83;;;;;;;1.40;78.50;100879.41;4919532;29;20060;-65
2021/12/23 06:00:23;;;;;;;60.88;30.70;;;;;;;1.26;79.27;100878.13;4919519;29;20492;-65
2021/12/23 06:02:50;;;;;;;61.53;30.75;;;;;;;1.30;79.50;100885.53;4928323;29;20059;-65
2021/12/23 06:05:19;;;;;;;65.35;30.40;;;;;;;1.17;79.41;100874.22;4939454;29;20052;-65
2021/12/23 06:07:46;;;;;;;71.80;32.72;;;;;;;1.41;79.40;100884.63;4939578;29;20056;-65
2021/12/23 06:10:14;;;;;;;59.10;29.92;;;;;;;1.41;79.07;100881.91;4938659;29;20059;-65
2021/12/23 06:12:42;;;;;;;61.38;30.10;;;;;;;1.49;78.41;100876.03;4938101;29;20455;-64
2021/12/23 06:15:10;;;;;;;68.97;30.85;;;;;;;1.64;77.78;100873.53;4939232;29;20543;-65
2021/12/23 06:17:38;;;;;;;66.32;30.30;;;;;;;1.62;78.31;100883.81;4939331;29;20052;-65
2021/12/23 06:20:06;;;;;;;61.42;29.70;;;;;;;1.57;77.67;100875.59;4939722;29;20141;-65
2021/12/23 06:22:35;;;;;;;60.58;30.17;;;;;;;1.55;78.18;100869.59;4939209;29;20055;-65
2021/12/23 06:25:04;;;;;;;61.10;30.63;;;;;;;1.44;78.46;100875.16;4939008;29;20051;-65
2021/12/23 06:27:31;;;;;;;66.47;31.57;;;;;;;1.57;78.56;100870.16;4939102;29;20060;-65
2021/12/23 06:29:59;;;;;;;61.65;30.20;;;;;;;1.41;78.89;100886.50;4939184;29;20062;-64
2021/12/23 06:32:26;;;;;;;60.63;30.25;;;;;;;1.56;78.45;100875.84;4953526;29;20059;-65
2021/12/23 06:34:53;;;;;;;61.25;30.05;;;;;;;1.64;78.41;100887.09;4938711;29;20062;-64
2021/12/23 06:37:20;;;;;;;60.38;30.08;;;;;;;1.73;77.88;100895.63;4939217;29;20063;-64
2021/12/23 06:39:48;;;;;;;61.90;30.75;;;;;;;1.67;77.75;100885.78;4936964;29;20055;-66
2021/12/23 06:42:16;;;;;;;63.47;29.77;;;;;;;1.66;78.09;100884.13;4937809;29;20051;-65
2021/12/23 06:44:43;;;;;;;58.35;29.38;;;;;;;1.78;78.03;100888.38;4937295;29;20052;-64
2021/12/23 06:47:10;;;;;;;65.82;30.92;;;;;;;1.75;77.68;100894.31;4938413;29;20055;-65
2021/12/23 06:49:38;;;;;;;64.53;30.83;;;;;;;1.57;78.13;100888.38;4938620;29;20059;-64
2021/12/23 06:52:05;;;;;;;61.47;30.65;;;;;;;1.47;78.51;100889.03;4938887;29;20058;-65
2021/12/23 06:54:32;;;;;;;63.63;30.67;;;;;;;1.45;78.76;100883.03;4938011;29;20056;-64
2021/12/23 06:57:00;;;;;;;66.10;31.52;;;;;;;1.60;78.95;100872.41;4938483;29;20396;-66
2021/12/23 06:59:27;;;;;;;64.93;30.73;;;;;;;1.85;78.00;100880.88;4938476;29;20059;-65
2021/12/23 07:01:54;;;;;;;61.22;30.15;;;;;;;1.74;77.73;100875.56;4937707;29;20071;-64
2021/12/23 07:04:26;;;;;;;60.25;30.77;;;;;;;1.58;78.57;100888.13;4919307;29;20055;-65
2021/12/23 07:07:07;;;;;;;61.92;30.25;;;;;;;1.55;78.92;100885.88;4919681;29;20056;-65
2021/12/23 07:09:42;;;;;;;65.25;30.23;;;;;;;1.73;78.55;100891.03;4919464;29;20514;-65
2021/12/23 07:12:11;;;;;;;71.03;29.70;;;;;;;1.72;78.43;100897.53;4918360;29;20047;-66
2021/12/23 07:14:39;;;;;;;68.88;31.27;;;;;;;2.01;77.96;100890.84;4917842;29;20066;-64
2021/12/23 07:17:07;;;;;;;62.67;30.02;;;;;;;1.67;78.70;100886.63;4919203;29;20044;-65
2021/12/23 07:19:35;;;;;;;64.80;31.35;;;;;;;1.67;78.87;100886.63;4918121;29;20059;-65
2021/12/23 07:22:03;;;;;;;67.43;31.50;;;;;;;1.63;78.57;100893.63;4919170;29;20052;-64
2021/12/23 07:24:30;;;;;;;63.30;30.52;;;;;;;1.55;79.28;100891.31;4917581;29;20052;-65
2021/12/23 07:26:58;;;;;;;64.35;30.60;;;;;;;1.76;78.96;100892.44;4902579;29;20060;-65
2021/12/23 07:29:25;;;;;;;59.53;29.75;;;;;;;1.95;77.90;100899.19;4919306;29;20051;-65
2021/12/23 07:31:52;;;;;;;56.92;29.83;;;;;;;2.05;78.05;100900.16;4919047;29;20060;-65
2021/12/23 07:34:19;;;;;;;62.20;31.35;;;;;;;2.08;77.41;100901.53;4918839;29;20052;-65
2021/12/23 07:36:47;;;;;;;67.40;30.92;;;;;;;1.93;77.53;100907.59;4919032;29;20349;-65
2021/12/23 07:39:14;;;;;;;61.20;31.33;;;;;;;2.15;77.34;100900.25;4917788;29;20051;-66
2021/12/23 07:42:02;;;;;;;63.60;31.40;;;;;;;2.22;77.30;100903.63;4919081;29;20052;-64
2021/12/23 07:44:36;;;;;;;62.63;30.77;;;;;;;2.28;76.50;100907.22;4918905;29;20055;-64
2021/12/23 07:47:03;;;;;;;58.63;30.98;;;;;;;2.39;76.70;100902.72;4919049;29;20059;-65
2021/12/23 07:49:31;;;;;;;60.83;29.90;;;;;;;2.54;76.42;100905.59;4918998;29;20060;-64
2021/12/23 07:51:58;;;;;;;56.42;29.65;;;;;;;2.53;75.86;100912.13;4917900;29;20059;-65
2021/12/23 07:54:25;;;;;;;58.63;30.50;;;;;;;2.50;75.62;100901.72;4918814;29;20063;-66
2021/12/23 07:56:52;;;;;;;61.35;29.80;;;;;;;2.40;75.67;100909.78;4917391;29;20074;-64
2021/12/23 07:59:20;;;;;;;59.92;31.13;;;;;;;2.69;75.33;100908.44;4918798;29;20052;-64
2021/12/23 08:01:47;;;;;;;68.40;31.35;;;;;;;2.76;74.92;100901.72;4917269;29;20531;-65
2021/12/23 08:04:14;;;;;;;65.25;29.52;;;;;;;2.84;74.35;100892.28;4937462;29;20054;-65
2021/12/23 08:06:42;;;;;;;62.30;30.27;;;;;;;2.79;74.67;100886.81;4935955;29;20091;-65
2021/12/23 08:09:09;;;;;;;67.72;32.33;;;;;;;2.79;74.88;100903.13;4937367;29;20047;-65
2021/12/23 08:11:39;;;;;;;54.83;29.35;;;;;;;2.77;74.72;100897.91;4937947;29;20056;-64
2021/12/23 08:14:07;;;;;;;57.40;28.88;;;;;;;2.64;75.37;100901.06;4936853;29;20059;-65
2021/12/23 08:16:39;;;;;;;63.45;30.50;;;;;;;2.77;75.51;100889.75;4936501;29;20044;-64
2021/12/23 08:19:08;;;;;;;62.30;29.63;;;;;;;2.94;74.61;100897.81;4937724;29;20044;-66
2021/12/23 08:21:36;;;;;;;63.67;30.98;;;;;;;2.99;74.49;100887.81;4936465;29;20059;-66
2021/12/23 08:24:04;;;;;;;66.60;29.73;;;;;;;3.03;74.45;100893.56;4936462;29;20055;-66
2021/12/23 08:26:40;;;;;;;59.05;29.63;;;;;;;3.00;74.36;100894.06;4937341;29;20407;-66
2021/12/23 08:29:08;;;;;;;57.05;29.08;;;;;;;3.36;73.93;100893.25;4935789;29;20059;-65
2021/12/23 08:31:36;;;;;;;60.60;27.85;;;;;;;3.14;74.14;100881.66;4937435;29;20048;-66
2021/12/23 08:34:03;;;;;;;57.95;28.20;;;;;;;3.09;74.39;100887.88;4938703;29;20055;-65
2021/12/23 08:36:31;;;;;;;61.90;29.77;;;;;;;3.02;74.66;100892.72;4941282;29;20518;-65
2021/12/23 08:38:58;;;;;;;55.90;29.70;;;;;;;3.13;74.14;100889.00;4941380;29;20051;-65
2021/12/23 08:41:25;;;;;;;56.80;30.33;;;;;;;3.04;74.73;100892.44;4941176;29;20086;-66
2021/12/23 08:43:53;;;;;;;58.30;30.15;;;;;;;3.00;75.12;100885.91;4941206;29;20059;-65
2021/12/23 08:46:22;;;;;;;58.55;30.15;;;;;;;3.14;74.39;100889.81;4940903;29;20040;-66
2021/12/23 08:48:49;;;;;;;56.60;30.47;;;;;;;3.19;74.35;100885.22;4955797;28;20534;-66
2021/12/23 08:51:16;;;;;;;57.13;29.27;;;;;;;3.25;74.53;100886.09;4939708;29;20066;-66
2021/12/23 08:53:44;;;;;;;53.45;29.42;;;;;;;3.19;74.53;100882.50;4941164;29;20059;-66
2021/12/23 08:56:11;;;;;;;56.45;30.13;;;;;;;3.07;75.27;100875.59;4940728;29;20491;-67
2021/12/23 08:58:39;;;;;;;53.30;29.58;;;;;;;3.27;74.94;100881.22;4941072;29;20059;-65
2021/12/23 09:01:07;;;;;;;55.45;29.10;;;;;;;3.47;74.42;100881.34;4955519;28;20051;-66
2021/12/23 09:03:35;;;;;;;56.90;29.80;;;;;;;3.29;74.42;100876.34;4926094;29;20087;-65
2021/12/23 09:06:03;;;;;;;58.35;30.13;;;;;;;3.35;74.58;100884.25;4921853;29;20052;-66
2021/12/23 09:08:31;;;;;;;59.47;28.58;;;;;;;3.59;74.02;100881.97;4921897;29;20155;-66
2021/12/23 09:11:00;;;;;;;57.60;28.17;;;;;;;3.94;73.22;100881.34;4919612;29;20060;-66
2021/12/23 09:13:29;;;;;;;55.47;28.67;;;;;;;3.86;72.81;100888.09;4921262;29;20107;-66
2021/12/23 09:15:57;;;;;;;58.88;28.55;;;;;;;3.87;72.93;100892.47;4921092;29;20052;-66
2021/12/23 09:18:26;;;;;;;55.83;28.77;;;;;;;3.88;73.07;100885.94;4921748;29;20059;-66
2021/12/23 09:20:55;;;;;;;51.78;28.20;;;;;;;4.19;72.26;100886.88;4921595;29;20048;-66
2021/12/23 09:23:23;;;;;;;59.35;28.05;;;;;;;4.20;72.11;100889.34;4921626;29;20056;-66
2021/12/23 09:25:52;;;;;;;52.38;27.95;;;;;;;4.24;71.88;100881.44;4921296;29;20052;-66
2021/12/23 09:33:42;;;;;;;50.95;28.08;;;;;;;4.34;72.35;100867.84;4920411;29;20060;-66
2021/12/23 09:36:10;;;;;;;55.95;27.80;;;;;;;4.33;72.71;100864.31;4920215;29;20052;-66
2021/12/23 09:38:37;;;;;;;51.65;28.13;;;;;;;4.43;72.37;100867.06;4921639;29;20048;-66
2021/12/23 09:41:10;;;;;;;45.97;26.85;;;;;;;4.48;72.20;100875.25;4921628;29;20059;-67
2021/12/23 09:43:39;;;;;;;56.55;28.95;;;;;;;4.40;72.95;100874.94;4921024;29;20052;-67
2021/12/23 09:46:09;;;;;;;54.90;27.02;;;;;;;4.52;72.95;100870.91;4919586;29;20052;-66
2021/12/23 09:48:38;;;;;;;;;;;;;;;4.85;72.24;100871.47;4920317;29;20059;-66
2021/12/23 09:51:06;;;;;;;52.67;26.80;;;;;;;4.91;72.15;100864.94;4919846;29;19923;-66
2021/12/23 09:53:36;;;;;;;47.60;25.23;;;;;;;4.94;72.46;100867.09;4919668;29;20063;-67
2021/12/23 09:56:04;;;;;;;47.22;25.50;;;;;;;5.04;72.06;100861.66;4919307;29;20063;-67
2021/12/23 09:58:32;;;;;;;47.33;26.35;;;;;;;5.13;71.82;100857.28;4920738;29;20060;-66
2021/12/23 10:01:00;;;;;;;48.90;25.63;;;;;;;5.27;72.15;100861.09;4919486;29;20509;-67
2021/12/23 10:03:28;;;;;;;50.25;26.60;;;;;;;5.09;72.53;100857.00;4932051;29;20061;-66
2021/12/23 10:05:58;;;;;;;51.92;26.38;;;;;;;5.04;72.17;100861.66;4939580;29;20056;-66
2021/12/23 10:08:27;;;;;;;54.53;26.98;;;;;;;5.14;72.40;100858.94;4939807;29;20050;-65
2021/12/23 10:11:06;;;;;;;52.90;25.17;;;;;;;5.46;71.93;100854.78;4938044;29;20071;-66
2021/12/23 10:30:55;;;;;;;50.45;25.45;;;;;;;5.80;72.79;100827.63;4938014;29;20051;-66
2021/12/23 10:38:42;;;;;;;40.15;22.08;;;;;;;5.97;74.12;100811.75;4939180;29;20052;-66
2021/12/23 10:41:19;;;;;;;43.92;21.35;;;;;;;6.13;73.87;100807.84;4939082;29;20496;-65
2021/12/23 10:43:47;;;;;;;47.33;22.10;;;;;;;6.26;74.69;100809.13;4939175;29;20062;-66
2021/12/23 10:46:20;;;;;;;44.08;20.17;;;;;;;6.44;74.66;100795.59;4938751;29;20059;-65
2021/12/23 10:49:52;;;;;;;36.78;20.35;;;;;;;6.57;74.85;100796.88;4937700;29;20052;-66
2021/12/23 10:52:00;;;;;;;39.40;20.58;;;;;;;6.67;74.73;100797.63;4933416;29;20535;-65
2021/12/23 11:00:29;;;;;;;39.30;20.73;;;;;;;6.78;75.87;100781.94;4938778;29;20063;-66
2021/12/23 11:03:13;;;;;;;36.65;19.58;;;;;;;7.09;75.99;100782.47;4929962;29;20056;-66
2021/12/23 11:05:51;;;;;;;36.05;19.83;;;;;;;7.11;75.74;100778.34;4919735;29;20063;-67
2021/12/23 11:09:33;;;;;;;46.58;23.88;;;;;;;7.16;76.21;100769.25;4918594;29;20051;-66
2021/12/23 11:37:08;;;;;;;35.10;19.38;;;;;;;7.99;74.87;100748.50;4917889;29;20059;-66
2021/12/23 11:40:04;;;;;;;40.00;19.02;;;;;;;8.13;75.17;100751.31;4919183;29;20059;-66
2021/12/23 11:42:49;;;;;;;31.45;18.35;;;;;;;8.10;75.09;100760.16;4918093;29;20067;-67
2021/12/23 11:45:16;;;;;;;36.63;20.33;;;;;;;7.88;76.31;100736.84;4918306;29;20055;-66
2021/12/23 11:47:45;;;;;;;36.45;20.30;;;;;;;8.18;75.56;100734.78;4917627;29;20627;-67
2021/12/23 11:50:19;;;;;;;36.45;17.95;;;;;;;8.15;75.92;100744.44;4918149;29;20052;-66
2021/12/23 11:52:47;;;;;;;42.97;24.98;;;;;;;8.14;76.16;100742.00;4919239;29;20067;-67
2021/12/23 11:55:15;;;;;;;48.88;29.15;;;;;;;8.12;76.61;100734.06;4918795;29;20052;-65
2021/12/23 11:57:43;;;;;;;38.83;22.65;;;;;;;7.95;77.45;100739.22;4917466;29;20052;-67
2021/12/23 12:00:20;;;;;;;34.67;19.38;;;;;;;7.83;77.67;100738.84;4919152;29;20067;-67
2021/12/23 12:03:08;;;;;;;53.85;22.70;;;;;;;7.74;78.30;100730.47;4918879;29;20507;-66
2021/12/23 12:05:36;;;;;;;38.08;20.80;;;;;;;7.97;77.36;100734.25;4918852;29;20063;-66
2021/12/23 12:08:06;;;;;;;38.00;18.98;;;;;;;8.21;76.19;100726.75;4918069;29;20078;-67
2021/12/23 12:10:33;;;;;;;28.58;17.33;;;;;;;8.34;75.48;100720.56;4918693;29;20488;-66
2021/12/23 12:13:09;;;;;;;29.23;16.48;;;;;;;7.94;76.15;100724.72;4917609;29;20052;-67
2021/12/23 12:15:39;;;;;;;27.00;17.20;;;;;;;7.88;76.52;100714.91;4918891;29;20052;-66
2021/12/23 12:18:09;;;;;;;35.00;17.33;;;;;;;7.96;76.65;100707.97;4918451;29;20492;-66
2021/12/23 12:20:52;;;;;;;27.15;16.05;;;;;;;8.12;75.85;100706.63;4918590;29;20055;-67
2021/12/23 12:23:30;;;;;;;29.50;16.58;;;;;;;8.38;75.15;100705.16;4918916;29;20052;-67
2021/12/23 12:26:00;;;;;;;27.83;16.67;;;;;;;8.55;74.41;100707.31;4918520;29;20063;-66
2021/12/23 12:28:27;;;;;;;;;;;;;;;8.62;72.89;100710.50;4917970;29;20045;-67
2021/12/23 12:30:58;;;;;;;31.90;17.15;;;;;;;8.65;73.62;100704.41;4918606;29;19923;-67
2021/12/23 12:33:25;;;;;;;30.75;16.08;;;;;;;8.49;73.33;100701.09;4918537;29;20063;-66